Adger, AL

2:21 AM CDT on April 25, 2015 (GMT -0500)
Oak Grove | | Change Station
CLOSE
Current Station
Personal Weather Station
Location: Bessemer, AL
Elevation: 371 ft
Nearby Weather Stations

Elev 371 ft 33.55 °N, 87.16 °W | Updated 31 minutes ago

Overcast
Overcast
59.9 °F
Feels Like 59.9 °F
N
1.1
Wind Variable Wind from SE

Today
High -- | Low -- °F
--% Chance of Precip.
Yesterday
High -- | Low -- °F
Precip. -- in
6:07 AM 7:26 PM
Waxing Crescent, 43% visible
Pressure 29.82 in
Visibility 10.0 miles
Clouds Mostly Cloudy 5000 ft
Overcast 11000 ft
Dew Point 60 °F
Humidity 99%
Rainfall 0.00 in
Snow Depth Not available.
UV 0 out of 12
Pollen 5.70 out of 12
Air Quality Not available.
Flu Activity No Activity
METAR KBHM 250653Z 05006KT 10SM TS BKN050CB OVC110 18/13 A2983 RMK AO2 RAE14 TSB33 PRESFR SLP096 OCNL LTGICCC W-N TS W-N MOV E P0001 T01780133

More Conditions Fewer Conditions

Pressure 29.82 in
Visibility 10.0 miles
Clouds Mostly Cloudy 5000 ft
Overcast 11000 ft
Dew Point 60 °F
Humidity 99%
Rainfall 0.00 in
Snow Depth Not available.
UV 0 out of 12
Pollen 5.70 out of 12
Air Quality Not available.
Flu Activity No Activity
METAR KBHM 250653Z 05006KT 10SM TS BKN050CB OVC110 18/13 A2983 RMK AO2 RAE14 TSB33 PRESFR SLP096 OCNL LTGICCC W-N TS W-N MOV E P0001 T01780133

More Conditions Fewer Conditions

10-Day Weather Forecast

Almanac

Astronomy

Apr. 25, 2015 Rise Set
Actual Time
Civil Twilight
Nautical Twilight
Astronomical Twilight
Moon
Length of Visible Light
Length of Day
Tomorrow will be .
, % of the Moon is Illuminated

Today's Extremes

State Highs State Lows

Community

WunderPhotos

Upload Photos

1,816,624 photos uploaded!

WunderBlogs® & News

Nearby

Air Quality

  Air Quality AQ Index Pollutant
Not available.

Snow Depth

Station Depth Elevation

Earthquake Activity

City Distance Mag. Time & Date
Minimum magnitude displayed is 2.5.

Coastal Water Temperatures

Place Temperature

Stations

Nearby Weather Stations

Station Location Temp. Windchill Dew Point Humidity Wind Precip. Elev Updated Type